Time;durP1;ratioP1;P1;durP2;ratioP2;P2;SDS_P1;SDS_P2;PMS_P1;PMS_P2;Temp;Humidity;BMP_temperature;BMP_pressure;BME280_temperature;BME280_humidity;BME280_pressure;Samples;Min_cycle;Max_cycle;Signal;HPM_P1;HPM_P2
2022/11/20 00:00:27;;;;;;;146.93;52.67;;;;;;;-4.73;62.16;98189.34;5092291;28;20027;-69
2022/11/20 00:02:52;;;;;;;154.50;57.30;;;;;;;-4.75;61.61;98186.06;5092679;28;20020;-69
2022/11/20 00:05:18;;;;;;;156.90;56.28;;;;;;;-4.79;62.09;98185.66;5088805;28;20028;-69
2022/11/20 00:07:43;;;;;;;159.15;59.13;;;;;;;-4.84;61.60;98176.56;5091050;28;20070;-70
2022/11/20 00:10:09;;;;;;;159.32;58.92;;;;;;;-4.87;61.58;98179.66;5093515;28;20035;-69
2022/11/20 00:12:34;;;;;;;168.65;60.15;;;;;;;-4.91;61.56;98176.56;5091420;28;20490;-69
2022/11/20 00:14:59;;;;;;;186.38;69.65;;;;;;;-4.95;61.78;98176.16;5091375;28;20035;-69
2022/11/20 00:17:25;;;;;;;203.82;73.88;;;;;;;-4.97;61.50;98180.91;5091173;28;20088;-69
2022/11/20 00:19:50;;;;;;;200.00;75.15;;;;;;;-4.98;61.77;98173.91;5090615;28;20384;-70
2022/11/20 00:22:16;;;;;;;208.38;74.55;;;;;;;-4.97;61.84;98178.22;5090734;28;20392;-69
2022/11/20 00:24:41;;;;;;;223.40;78.47;;;;;;;-5.01;62.18;98174.28;5090757;28;20080;-68
2022/11/20 00:27:06;;;;;;;211.82;76.65;;;;;;;-5.04;61.93;98172.03;5090915;28;20108;-68
2022/11/20 00:29:32;;;;;;;219.35;74.95;;;;;;;-5.05;62.19;98177.56;5090040;28;20024;-69
2022/11/20 00:31:57;;;;;;;215.32;75.10;;;;;;;-5.08;62.04;98189.50;5091064;28;20028;-68
2022/11/20 00:34:22;;;;;;;208.10;74.80;;;;;;;-5.10;61.97;98179.00;5091509;28;20527;-69
2022/11/20 00:36:48;;;;;;;203.60;74.40;;;;;;;-5.11;62.42;98177.38;5090135;28;20040;-70
2022/11/20 00:39:13;;;;;;;215.70;78.97;;;;;;;-5.12;62.08;98178.41;5073306;28;20124;-69
2022/11/20 00:41:39;;;;;;;218.57;78.90;;;;;;;-5.10;62.46;98176.34;5090689;28;20039;-69
2022/11/20 00:44:04;;;;;;;218.48;77.72;;;;;;;-5.08;62.29;98176.13;5091170;28;20503;-70
2022/11/20 00:46:29;;;;;;;219.13;80.43;;;;;;;-5.08;62.17;98179.59;5091320;28;20048;-70
2022/11/20 00:48:55;;;;;;;228.18;80.35;;;;;;;-5.08;62.27;98178.81;5071451;28;20119;-69
2022/11/20 00:51:23;;;;;;;213.95;78.75;;;;;;;-5.09;61.98;98169.94;5089498;28;20023;-69
2022/11/20 00:53:49;;;;;;;234.75;82.65;;;;;;;-5.11;62.16;98168.50;5091282;28;20439;-69
2022/11/20 00:56:16;;;;;;;223.65;81.30;;;;;;;-5.13;62.35;98162.53;5091304;28;20031;-69
2022/11/20 00:58:44;;;;;;;213.68;79.57;;;;;;;-5.13;62.17;98165.22;5090567;28;20115;-70
2022/11/20 01:01:18;;;;;;;212.00;77.35;;;;;;;-5.14;62.06;98169.75;5089882;28;20028;-70
2022/11/20 01:03:45;;;;;;;214.18;77.05;;;;;;;-5.15;62.07;98167.25;5090802;28;20031;-68
2022/11/20 01:06:14;;;;;;;208.60;74.10;;;;;;;-5.17;62.07;98162.13;5072760;28;20034;-70
2022/11/20 01:08:40;;;;;;;204.40;74.68;;;;;;;-5.20;62.65;98162.53;5090639;28;20044;-69
2022/11/20 01:11:08;;;;;;;205.68;73.38;;;;;;;-5.22;62.26;98159.22;5090166;28;20055;-70
2022/11/20 01:13:37;;;;;;;197.77;72.18;;;;;;;-5.20;62.47;98159.00;5074588;28;20023;-70
2022/11/20 01:16:24;;;;;;;206.65;70.82;;;;;;;-5.21;62.32;98158.19;5072174;28;20536;-70
2022/11/20 01:18:51;;;;;;;198.65;71.85;;;;;;;-5.21;62.32;98158.19;5090886;28;20135;-70
2022/11/20 01:21:23;;;;;;;199.60;72.70;;;;;;;-5.23;62.65;98157.56;5071880;28;20100;-70
2022/11/20 01:23:49;;;;;;;194.75;70.85;;;;;;;-5.24;62.18;98151.38;5090842;28;20596;-69
2022/11/20 01:26:24;;;;;;;191.25;68.75;;;;;;;-5.24;62.75;98150.59;5091302;28;20146;-69
2022/11/20 01:28:50;;;;;;;183.52;66.50;;;;;;;-5.25;62.26;98155.09;5090652;28;20140;-70
2022/11/20 01:31:18;;;;;;;181.90;64.18;;;;;;;-5.25;62.79;98149.75;5090328;28;20031;-70
2022/11/20 01:33:46;;;;;;;191.00;67.75;;;;;;;-5.28;62.75;98141.31;5092676;28;20051;-69
2022/11/20 01:36:12;;;;;;;183.80;66.35;;;;;;;-5.30;62.60;98130.84;5091018;28;20484;-69
2022/11/20 01:38:38;;;;;;;169.55;64.50;;;;;;;-5.32;62.62;98127.53;5072104;28;20020;-70
2022/11/20 01:41:05;;;;;;;184.60;65.40;;;;;;;-5.36;62.51;98118.28;5089635;28;20149;-70
2022/11/20 01:43:31;;;;;;;181.60;66.03;;;;;;;-5.38;62.21;98123.00;5090267;28;20459;-69
2022/11/20 01:46:00;;;;;;;175.32;63.65;;;;;;;-5.43;62.33;98109.41;5090387;28;20109;-70
2022/11/20 01:48:45;;;;;;;181.95;65.80;;;;;;;-5.47;62.38;98108.16;5090129;28;20047;-69
2022/11/20 01:51:22;;;;;;;168.25;61.47;;;;;;;-5.51;62.32;98114.94;5089027;28;20055;-69
2022/11/20 01:53:49;;;;;;;173.68;64.22;;;;;;;-5.52;62.57;98111.44;5089652;28;20032;-69
2022/11/20 01:56:15;;;;;;;175.45;64.85;;;;;;;-5.55;62.28;98123.34;5090212;28;20069;-69
2022/11/20 01:58:48;;;;;;;172.38;63.50;;;;;;;-5.59;62.51;98127.44;5089814;28;20028;-69
2022/11/20 02:01:13;;;;;;;169.38;62.47;;;;;;;-5.63;62.38;98125.38;5086648;28;20080;-69
2022/11/20 02:03:39;;;;;;;165.90;61.78;;;;;;;-5.65;62.33;98127.41;5089513;28;20110;-69
2022/11/20 02:06:13;;;;;;;159.25;62.90;;;;;;;-5.68;62.32;98132.13;5089429;28;20107;-69
2022/11/20 02:08:38;;;;;;;178.57;65.78;;;;;;;-5.66;62.70;98137.25;5090172;28;20032;-69
2022/11/20 02:11:04;;;;;;;170.25;61.15;;;;;;;-5.68;62.77;98137.47;5090452;28;20091;-69
2022/11/20 02:13:44;;;;;;;162.88;63.20;;;;;;;-5.65;62.45;98138.09;5090962;28;20032;-70
2022/11/20 02:16:25;;;;;;;154.02;58.05;;;;;;;-5.62;62.49;98140.38;5090209;28;20103;-70
2022/11/20 02:18:53;;;;;;;157.90;59.47;;;;;;;-5.61;62.42;98150.03;5087199;28;20111;-70
2022/11/20 02:21:42;;;;;;;145.77;56.90;;;;;;;-5.63;62.51;98138.72;5089075;28;20024;-69
2022/11/20 02:24:17;;;;;;;157.30;59.75;;;;;;;-5.65;62.73;98149.59;5089528;28;20032;-70
2022/11/20 02:26:51;;;;;;;159.88;58.35;;;;;;;-5.69;62.77;98145.69;5089727;28;20051;-69
2022/11/20 02:29:38;;;;;;;166.52;59.60;;;;;;;-5.74;62.39;98150.81;5089236;28;20081;-70
2022/11/20 02:32:04;;;;;;;150.25;56.17;;;;;;;-5.76;62.63;98147.53;5074025;28;20048;-70
2022/11/20 02:34:30;;;;;;;150.40;58.40;;;;;;;-5.78;62.43;98150.38;5088833;28;20050;-69
2022/11/20 02:36:57;;;;;;;159.57;58.00;;;;;;;-5.76;62.57;98153.66;5071192;28;20498;-69
2022/11/20 02:39:25;;;;;;;145.48;54.60;;;;;;;-5.73;62.37;98150.59;5089163;28;20121;-70
2022/11/20 02:41:53;;;;;;;145.15;54.50;;;;;;;-5.70;62.78;98144.88;5088798;28;20042;-70
2022/11/20 02:44:19;;;;;;;133.90;51.33;;;;;;;-5.65;63.34;98152.28;5086046;28;20051;-69
2022/11/20 02:46:45;;;;;;;134.98;49.63;;;;;;;-5.62;63.02;98159.91;5089910;28;20043;-69
2022/11/20 02:49:10;;;;;;;135.82;53.17;;;;;;;-5.61;63.01;98160.72;5089887;28;20036;-71
2022/11/20 02:51:36;;;;;;;136.52;51.65;;;;;;;-5.58;62.94;98163.00;5087840;28;20536;-69
2022/11/20 02:54:01;;;;;;;127.30;49.50;;;;;;;-5.59;62.65;98148.81;5089964;28;20026;-70
2022/11/20 02:56:27;;;;;;;127.78;48.20;;;;;;;-5.57;63.04;98148.63;5089220;28;20115;-69
2022/11/20 02:58:52;;;;;;;126.18;48.85;;;;;;;-5.56;63.10;98150.28;5090834;28;20032;-69
2022/11/20 03:01:17;;;;;;;133.60;49.53;;;;;;;-5.54;62.83;98156.25;5091991;28;20089;-68
2022/11/20 03:03:43;;;;;;;117.50;46.47;;;;;;;-5.54;63.31;98151.72;5093119;28;20403;-69
2022/11/20 03:06:08;;;;;;;120.38;47.42;;;;;;;-5.51;63.43;98155.84;5074854;28;20038;-70
2022/11/20 03:08:34;;;;;;;129.57;48.17;;;;;;;-5.49;63.18;98153.78;5092877;28;20036;-68
2022/11/20 03:11:07;;;;;;;123.20;47.50;;;;;;;-5.51;62.98;98153.19;5091963;28;20081;-69
2022/11/20 03:13:34;;;;;;;121.80;48.05;;;;;;;-5.49;62.97;98150.28;5092615;28;20028;-69
2022/11/20 03:16:15;;;;;;;131.35;49.75;;;;;;;-5.50;62.66;98148.66;5101857;28;20085;-69
2022/11/20 03:18:41;;;;;;;136.73;50.63;;;;;;;-5.49;62.92;98153.78;5091722;28;20024;-69
2022/11/20 03:21:07;;;;;;;122.38;49.45;;;;;;;-5.51;63.23;98153.19;5072254;28;20032;-69
2022/11/20 03:23:34;;;;;;;133.50;51.15;;;;;;;-5.56;62.93;98158.28;5092339;28;20103;-69
2022/11/20 03:26:14;;;;;;;137.02;50.85;;;;;;;-5.62;62.64;98154.56;5092838;28;20024;-69
2022/11/20 03:28:41;;;;;;;137.60;49.47;;;;;;;-5.63;62.60;98154.75;5092150;28;20032;-69
2022/11/20 03:31:11;;;;;;;129.45;51.47;;;;;;;-5.66;63.16;98149.81;5093159;28;20020;-69
2022/11/20 03:33:38;;;;;;;141.30;54.50;;;;;;;-5.69;63.23;98159.88;5093030;28;20074;-69
2022/11/20 03:36:06;;;;;;;136.52;53.60;;;;;;;-5.70;63.17;98157.38;5092640;28;20043;-69
2022/11/20 03:38:32;;;;;;;144.90;54.58;;;;;;;-5.68;62.98;98160.69;5092840;28;20031;-69
2022/11/20 03:41:03;;;;;;;138.30;52.38;;;;;;;-5.70;62.74;98154.72;5092688;28;20024;-69
2022/11/20 03:43:28;;;;;;;138.52;52.45;;;;;;;-5.71;62.54;98158.44;5092820;28;20044;-69
2022/11/20 03:45:54;;;;;;;136.40;52.35;;;;;;;-5.70;62.84;98160.06;5092673;28;20383;-69
2022/11/20 03:48:19;;;;;;;131.23;51.38;;;;;;;-5.68;62.67;98158.84;5092945;28;20028;-69
2022/11/20 03:50:47;;;;;;;129.60;50.10;;;;;;;-5.68;63.27;98152.66;5092543;28;20566;-68
2022/11/20 03:53:13;;;;;;;133.85;51.15;;;;;;;-5.70;63.26;98154.72;5092541;28;20437;-70
2022/11/20 03:55:38;;;;;;;143.93;50.55;;;;;;;-5.71;63.40;98153.09;5092131;28;20032;-69
2022/11/20 03:58:04;;;;;;;120.97;48.22;;;;;;;-5.70;63.26;98152.03;5092439;28;20036;-70
2022/11/20 04:00:29;;;;;;;121.15;49.47;;;;;;;-5.70;63.43;98158.22;5092008;28;20480;-69
2022/11/20 04:02:58;;;;;;;121.55;47.42;;;;;;;-5.69;62.92;98151.88;5092706;28;20028;-69
2022/11/20 04:05:23;;;;;;;119.05;47.70;;;;;;;-5.68;63.14;98150.84;5104277;28;20027;-69
2022/11/20 04:07:49;;;;;;;122.53;47.67;;;;;;;-5.68;63.09;98150.00;5112627;28;20027;-69
2022/11/20 04:10:14;;;;;;;124.10;47.70;;;;;;;-5.66;63.30;98144.47;5111890;28;20112;-68
2022/11/20 04:12:39;;;;;;;117.55;44.92;;;;;;;-5.63;63.29;98141.41;5112303;28;20024;-69
2022/11/20 04:15:05;;;;;;;118.35;44.88;;;;;;;-5.62;63.07;98146.53;5112781;28;20157;-69
2022/11/20 04:17:31;;;;;;;114.32;45.28;;;;;;;-5.61;63.33;98134.03;5107930;28;20035;-69
2022/11/20 04:19:56;;;;;;;117.25;45.25;;;;;;;-5.60;63.14;98143.69;5102572;28;20506;-69
2022/11/20 04:22:21;;;;;;;120.30;47.30;;;;;;;-5.60;63.31;98138.34;5096387;28;20032;-69
2022/11/20 04:24:47;;;;;;;121.70;47.38;;;;;;;-5.59;63.17;98140.78;5092107;28;20028;-70
2022/11/20 04:27:12;;;;;;;125.43;47.38;;;;;;;-5.59;63.52;98135.44;5091560;28;20136;-69
2022/11/20 04:29:38;;;;;;;115.85;47.20;;;;;;;-5.59;63.53;98131.97;5092699;28;20031;-69
2022/11/20 04:32:03;;;;;;;127.63;47.85;;;;;;;-5.63;63.26;98123.50;5092840;28;20024;-70
2022/11/20 04:34:29;;;;;;;114.45;45.13;;;;;;;-5.62;63.69;98132.38;5092850;28;20039;-69
2022/11/20 04:36:54;;;;;;;118.32;46.00;;;;;;;-5.63;63.11;98123.50;5091849;28;20020;-68
2022/11/20 04:39:19;;;;;;;124.88;47.45;;;;;;;-5.66;63.23;98123.91;5090896;28;20061;-69
2022/11/20 04:41:45;;;;;;;115.78;46.47;;;;;;;-5.67;63.05;98122.25;5091082;28;20411;-69
2022/11/20 04:44:11;;;;;;;120.30;48.60;;;;;;;-5.69;63.35;98119.81;5091433;28;20043;-70
2022/11/20 04:46:41;;;;;;;124.25;49.22;;;;;;;-5.69;63.32;98119.81;5091400;28;21638;-70
2022/11/20 04:49:07;;;;;;;117.30;47.60;;;;;;;-5.69;63.36;98118.97;5091207;28;20057;-70
2022/11/20 04:51:33;;;;;;;118.85;46.50;;;;;;;-5.67;63.48;98108.91;5091421;28;20028;-70
2022/11/20 04:53:59;;;;;;;118.35;48.78;;;;;;;-5.69;63.55;98110.94;5091071;28;20479;-70
2022/11/20 04:56:24;;;;;;;131.65;50.78;;;;;;;-5.71;63.10;98111.16;5091100;28;20050;-70
2022/11/20 04:58:50;;;;;;;127.78;50.28;;;;;;;-5.70;63.21;98111.97;5090782;28;20040;-70
2022/11/20 05:01:18;;;;;;;128.02;48.03;;;;;;;-5.73;63.48;98096.38;5091250;28;20039;-70
2022/11/20 05:03:45;;;;;;;115.65;47.33;;;;;;;-5.71;63.40;98097.81;5091225;28;20416;-70
2022/11/20 05:06:13;;;;;;;124.50;47.97;;;;;;;-5.66;63.84;98097.19;5073272;28;20377;-69
2022/11/20 05:08:38;;;;;;;116.25;45.80;;;;;;;-5.62;63.99;98093.09;5090226;28;20032;-69
2022/11/20 05:11:10;;;;;;;103.28;44.22;;;;;;;-5.56;63.80;98094.16;5091032;28;20093;-69
2022/11/20 05:13:36;;;;;;;106.47;42.85;;;;;;;-5.52;64.27;98098.09;5091028;28;20038;-69
2022/11/20 05:16:04;;;;;;;109.35;44.65;;;;;;;-5.50;64.27;98098.69;5091221;28;20028;-70
2022/11/20 05:18:30;;;;;;;120.55;45.80;;;;;;;-5.47;64.21;98089.44;5090369;28;20472;-70
2022/11/20 05:20:57;;;;;;;114.50;45.90;;;;;;;-5.48;63.76;98101.16;5105882;28;20084;-69
2022/11/20 05:23:23;;;;;;;108.65;43.13;;;;;;;-5.46;64.15;98097.25;5110564;28;20476;-70
2022/11/20 05:25:52;;;;;;;125.68;48.63;;;;;;;-5.44;64.17;98097.88;5111358;28;20016;-70
2022/11/20 05:28:17;;;;;;;118.65;46.95;;;;;;;-5.43;63.64;98088.84;5110752;28;20090;-70
2022/11/20 05:30:42;;;;;;;114.90;44.95;;;;;;;-5.43;64.22;98090.69;5092621;28;20772;-70
2022/11/20 05:33:08;;;;;;;107.57;42.60;;;;;;;-5.40;63.83;98084.94;5111158;28;20051;-69
2022/11/20 05:35:33;;;;;;;107.38;42.50;;;;;;;-5.40;64.00;98090.28;5111024;28;20035;-69
2022/11/20 05:37:59;;;;;;;98.82;41.30;;;;;;;-5.40;64.05;98085.75;5110223;28;20051;-70
2022/11/20 05:40:24;;;;;;;102.13;41.25;;;;;;;-5.35;64.36;98087.00;5111255;28;20027;-70
2022/11/20 05:42:49;;;;;;;110.20;44.67;;;;;;;-5.32;64.46;98091.94;5100532;28;20146;-70
2022/11/20 05:45:15;;;;;;;114.43;46.25;;;;;;;-5.32;64.51;98084.75;5090648;28;20525;-70
2022/11/20 05:47:40;;;;;;;115.20;47.92;;;;;;;-5.32;64.34;98078.59;5090539;28;20392;-69
2022/11/20 05:50:06;;;;;;;117.40;48.38;;;;;;;-5.31;64.06;98077.56;5089669;28;20054;-70
2022/11/20 05:52:31;;;;;;;115.65;47.80;;;;;;;-5.30;64.24;98072.03;5090586;28;20490;-70
2022/11/20 05:54:56;;;;;;;120.93;46.33;;;;;;;-5.29;64.46;98072.84;5091333;28;20040;-70
2022/11/20 05:57:22;;;;;;;106.63;42.80;;;;;;;-5.28;64.73;98072.63;5104410;28;20024;-70
2022/11/20 05:59:47;;;;;;;104.15;43.28;;;;;;;-5.24;64.71;98059.69;5090687;28;20442;-70
2022/11/20 06:02:13;;;;;;;100.90;41.95;;;;;;;-5.20;64.35;98066.28;5085791;28;20058;-70
2022/11/20 06:04:38;;;;;;;95.95;41.92;;;;;;;-5.17;64.56;98065.03;5103624;28;20024;-70
2022/11/20 06:07:05;;;;;;;105.53;42.53;;;;;;;-5.14;64.58;98070.81;5091445;28;20036;-70
2022/11/20 06:09:31;;;;;;;100.43;41.00;;;;;;;-5.11;64.85;98066.88;5090059;28;20092;-70
2022/11/20 06:11:56;;;;;;;109.85;43.00;;;;;;;-5.10;64.78;98072.03;5091086;28;20079;-69
2022/11/20 06:14:22;;;;;;;112.38;42.10;;;;;;;-5.05;64.43;98075.94;5091044;28;20113;-70
2022/11/20 06:16:47;;;;;;;120.85;44.42;;;;;;;-5.05;64.64;98074.09;5111371;28;20027;-70
2022/11/20 06:19:13;;;;;;;142.88;51.15;;;;;;;-5.08;64.44;98079.84;5110685;28;20057;-70
2022/11/20 06:21:38;;;;;;;146.73;50.80;;;;;;;-5.06;64.31;98080.47;5111028;28;20034;-70
2022/11/20 06:24:03;;;;;;;150.18;50.72;;;;;;;-5.06;64.36;98083.16;5111184;28;20027;-70
2022/11/20 06:26:30;;;;;;;140.75;52.05;;;;;;;-5.07;64.58;98081.50;5111093;28;20051;-71
2022/11/20 06:28:56;;;;;;;148.45;55.95;;;;;;;-5.09;64.58;98083.56;5111505;28;20387;-70
2022/11/20 06:31:23;;;;;;;167.25;60.20;;;;;;;-5.15;64.39;98082.53;5110577;28;20024;-70
2022/11/20 06:33:50;;;;;;;160.55;59.22;;;;;;;-5.17;63.90;98084.59;5111104;28;20028;-70
2022/11/20 06:36:17;;;;;;;179.95;63.35;;;;;;;-5.20;64.32;98078.81;5111040;28;20494;-70
2022/11/20 06:38:43;;;;;;;178.57;63.50;;;;;;;-5.21;64.12;98083.34;5111481;28;20102;-70
2022/11/20 06:41:12;;;;;;;177.75;67.13;;;;;;;-5.24;64.32;98075.72;5110427;28;20126;-70
2022/11/20 06:43:37;;;;;;;198.55;74.28;;;;;;;-5.27;63.82;98071.59;5099414;28;20514;-70
2022/11/20 06:46:03;;;;;;;191.50;71.97;;;;;;;-5.28;64.01;98074.47;5108538;28;20024;-70
2022/11/20 06:48:29;;;;;;;177.63;68.97;;;;;;;-5.27;64.23;98073.44;5090359;28;20043;-70
2022/11/20 06:50:55;;;;;;;179.70;68.03;;;;;;;-5.30;64.12;98072.03;5089982;28;20346;-70
2022/11/20 06:53:22;;;;;;;189.82;71.82;;;;;;;-5.33;63.77;98067.09;5090597;28;20365;-70
2022/11/20 06:55:48;;;;;;;190.73;67.18;;;;;;;-5.38;63.81;98065.00;5090727;28;20028;-70
2022/11/20 06:58:14;;;;;;;194.90;72.40;;;;;;;-5.42;63.94;98063.75;5089774;28;20091;-70
2022/11/20 07:00:40;;;;;;;193.25;74.90;;;;;;;-5.41;63.77;98053.91;5110248;28;20030;-70
2022/11/20 07:03:07;;;;;;;206.02;75.57;;;;;;;-5.39;64.00;98052.66;5095566;28;20384;-70
2022/11/20 07:05:33;;;;;;;192.27;72.63;;;;;;;-5.38;63.96;98053.50;5090419;28;20058;-70
2022/11/20 07:07:59;;;;;;;196.25;74.25;;;;;;;-5.34;63.94;98052.06;5090471;28;20055;-70
2022/11/20 07:10:25;;;;;;;207.60;75.50;;;;;;;-5.31;64.26;98048.16;5089885;28;20036;-70
2022/11/20 07:12:54;;;;;;;194.43;74.55;;;;;;;-5.29;64.27;98052.25;5102739;28;20027;-70
2022/11/20 07:15:22;;;;;;;192.48;75.78;;;;;;;-5.27;64.41;98044.84;5106488;28;20449;-70
2022/11/20 07:17:48;;;;;;;187.98;70.63;;;;;;;-5.23;64.07;98045.28;5092705;28;20119;-70
2022/11/20 07:20:14;;;;;;;197.70;73.78;;;;;;;-5.19;64.11;98051.88;5110273;28;20135;-70
2022/11/20 07:22:39;;;;;;;181.70;70.80;;;;;;;-5.13;64.11;98048.38;5110402;28;20035;-70
2022/11/20 07:25:06;;;;;;;195.32;73.65;;;;;;;-5.08;64.16;98045.91;5110664;28;20076;-69
2022/11/20 07:27:31;;;;;;;186.82;73.43;;;;;;;-5.03;64.60;98047.13;5110577;28;20032;-70
2022/11/20 07:29:57;;;;;;;180.38;69.18;;;;;;;-4.98;64.22;98048.19;5110263;28;20030;-69
2022/11/20 07:32:23;;;;;;;184.70;68.78;;;;;;;-4.91;64.33;98053.53;5110085;28;20024;-70
2022/11/20 07:34:48;;;;;;;171.35;67.60;;;;;;;-4.84;64.82;98051.66;5110831;28;20077;-71
2022/11/20 07:37:14;;;;;;;177.93;69.43;;;;;;;-4.78;64.32;98053.53;5110455;28;20490;-70
2022/11/20 07:39:39;;;;;;;168.57;71.32;;;;;;;-4.71;64.47;98045.47;5108183;28;20089;-70
2022/11/20 07:42:06;;;;;;;176.45;70.22;;;;;;;-4.64;64.73;98053.50;5106281;28;20114;-71
2022/11/20 07:44:32;;;;;;;173.63;70.82;;;;;;;-4.56;64.65;98047.94;5088729;28;20059;-70
2022/11/20 07:46:57;;;;;;;165.15;65.43;;;;;;;-4.49;64.88;98048.75;5091558;28;20036;-70
2022/11/20 07:49:23;;;;;;;139.02;54.75;;;;;;;-4.40;65.38;98049.34;5092648;28;20048;-69
2022/11/20 07:51:51;;;;;;;130.00;54.15;;;;;;;-4.29;65.19;98045.22;5092570;28;20036;-69
2022/11/20 07:54:16;;;;;;;125.57;49.80;;;;;;;-4.19;65.42;98045.56;5091908;28;20023;-69
2022/11/20 07:56:42;;;;;;;137.57;53.55;;;;;;;-4.10;65.22;98051.53;5092524;28;20391;-70
2022/11/20 07:59:07;;;;;;;133.70;52.75;;;;;;;-4.00;65.73;98042.22;5091955;28;20040;-69
2022/11/20 08:01:32;;;;;;;136.93;52.05;;;;;;;-3.88;65.97;98056.59;5092326;28;20089;-70
2022/11/20 08:03:58;;;;;;;127.40;50.58;;;;;;;-3.79;65.90;98058.00;5092062;28;20059;-70
2022/11/20 08:06:24;;;;;;;117.55;48.60;;;;;;;-3.69;66.00;98059.41;5073947;28;20028;-70
2022/11/20 08:08:50;;;;;;;117.07;49.13;;;;;;;-3.61;65.79;98059.97;5092141;28;20484;-70
2022/11/20 08:14:11;;;;;;;124.68;49.20;;;;;;;-3.42;65.91;98070.78;5076500;28;20160;-69
2022/11/20 08:16:38;;;;;;;130.60;50.28;;;;;;;-3.35;65.96;98068.91;5092510;28;20070;-70
2022/11/20 08:19:03;;;;;;;137.15;51.65;;;;;;;-3.25;66.16;98062.25;5091608;28;20380;-70
2022/11/20 08:21:30;;;;;;;131.02;49.90;;;;;;;-3.17;66.36;98064.69;5091792;28;20032;-69
2022/11/20 08:23:57;;;;;;;129.73;50.70;;;;;;;-3.13;66.35;98068.56;5091765;28;20134;-69
2022/11/20 08:26:23;;;;;;;116.30;47.17;;;;;;;-3.06;66.19;98066.66;5092448;28;20032;-69
2022/11/20 08:28:49;;;;;;;113.15;47.45;;;;;;;-2.98;66.00;98068.25;5091831;28;20426;-70
2022/11/20 08:31:14;;;;;;;117.45;48.05;;;;;;;-2.92;66.13;98058.50;5073433;28;20426;-69
2022/11/20 08:33:39;;;;;;;113.13;47.25;;;;;;;-2.86;66.50;98063.84;5091224;28;20019;-70
2022/11/20 08:36:06;;;;;;;110.25;44.75;;;;;;;-2.78;66.50;98070.78;5091760;28;20016;-70
2022/11/20 08:38:32;;;;;;;105.00;43.67;;;;;;;-2.71;66.12;98066.19;5091453;28;20039;-69
2022/11/20 08:43:47;;;;;;;115.15;46.40;;;;;;;-2.55;66.12;98064.81;5091667;28;20101;-69
2022/11/20 08:46:12;;;;;;;109.65;44.53;;;;;;;-2.44;66.71;98055.19;5091355;28;20024;-70
2022/11/20 08:48:38;;;;;;;109.75;43.65;;;;;;;-2.33;66.67;98061.69;5091405;28;20573;-69
2022/11/20 08:51:03;;;;;;;95.00;43.17;;;;;;;-2.20;66.69;98066.09;5090978;28;20028;-69
2022/11/20 08:53:29;;;;;;;97.70;41.70;;;;;;;-2.07;66.59;98069.69;5073164;28;20541;-69
2022/11/20 08:55:54;;;;;;;101.93;43.83;;;;;;;-1.92;66.66;98075.53;5091349;28;20035;-70
2022/11/20 08:58:19;;;;;;;104.65;42.90;;;;;;;-1.84;66.70;98069.00;5092857;28;20889;-70
2022/11/20 09:00:45;;;;;;;105.85;43.35;;;;;;;-1.75;66.89;98075.72;5111225;28;20379;-69
2022/11/20 09:03:13;;;;;;;105.97;45.00;;;;;;;-1.63;66.91;98066.91;5090883;28;20059;-70
2022/11/20 09:05:38;;;;;;;105.07;44.88;;;;;;;-1.56;66.60;98063.09;5090540;28;20019;-70
2022/11/20 09:08:04;;;;;;;111.35;46.05;;;;;;;-1.53;66.96;98076.06;5090386;28;20430;-70
2022/11/20 09:10:29;;;;;;;103.15;44.85;;;;;;;-1.51;66.54;98070.47;5090535;28;20077;-69
2022/11/20 09:12:55;;;;;;;118.22;49.50;;;;;;;-1.52;66.33;98064.28;5090491;28;20020;-70
2022/11/20 09:15:20;;;;;;;116.32;48.53;;;;;;;-1.52;66.48;98061.59;5089869;28;20024;-69
2022/11/20 09:17:52;;;;;;;126.38;53.38;;;;;;;-1.56;66.53;98059.56;5092517;28;20028;-70
2022/11/20 09:20:18;;;;;;;118.85;51.58;;;;;;;-1.57;66.18;98066.81;5071849;28;20031;-69
2022/11/20 09:22:44;;;;;;;123.00;52.33;;;;;;;-1.55;66.38;98062.03;5089732;28;20021;-69
2022/11/20 09:25:09;;;;;;;130.88;53.70;;;;;;;-1.52;66.44;98060.75;5088044;28;20488;-69
2022/11/20 09:27:35;;;;;;;132.55;54.35;;;;;;;-1.51;66.28;98060.53;5091486;28;20036;-69
2022/11/20 09:30:01;;;;;;;131.57;55.65;;;;;;;-1.47;66.46;98052.00;5089808;28;20024;-69
2022/11/20 09:32:26;;;;;;;143.85;62.17;;;;;;;-1.45;66.33;98050.72;5089580;28;20028;-70
2022/11/20 09:34:51;;;;;;;140.90;59.85;;;;;;;-1.48;66.50;98039.59;5090406;28;20035;-70
2022/11/20 09:37:17;;;;;;;178.45;75.65;;;;;;;-1.45;65.90;98036.47;5089349;28;20092;-69
2022/11/20 09:39:43;;;;;;;168.40;73.72;;;;;;;-1.41;66.45;98043.84;5089388;28;20506;-69
2022/11/20 09:42:20;;;;;;;146.00;64.93;;;;;;;-1.41;66.42;98035.78;5071456;28;20043;-70
2022/11/20 09:45:07;;;;;;;140.00;59.10;;;;;;;-1.36;66.66;98032.38;5089073;28;20055;-70
2022/11/20 09:48:11;;;;;;;131.98;54.47;;;;;;;-1.34;66.53;98027.59;5089778;28;20035;-69
2022/11/20 09:51:00;;;;;;;126.05;51.95;;;;;;;-1.28;66.67;98026.69;5089570;28;20046;-70
2022/11/20 09:53:49;;;;;;;127.45;53.75;;;;;;;-1.22;66.44;98023.06;5107038;28;20054;-69
2022/11/20 09:56:18;;;;;;;128.98;51.80;;;;;;;-1.16;66.61;98025.91;5109801;28;20031;-70
2022/11/20 09:58:47;;;;;;;126.60;51.60;;;;;;;-1.11;66.72;98017.97;5110141;28;20023;-69
2022/11/20 10:01:18;;;;;;;138.07;54.70;;;;;;;-1.07;66.68;98024.53;5110144;28;20030;-70
2022/11/20 10:04:18;;;;;;;124.85;52.45;;;;;;;-1.03;66.87;98014.09;5109943;28;20030;-70
2022/11/20 10:07:22;;;;;;;110.05;47.53;;;;;;;-0.98;66.95;98016.91;5094122;28;20186;-70
2022/11/20 10:09:54;;;;;;;118.38;50.95;;;;;;;-0.92;66.90;98006.03;5109589;28;20028;-70
2022/11/20 10:12:51;;;;;;;115.35;48.85;;;;;;;-0.87;66.63;98008.03;5105856;28;20116;-70
2022/11/20 10:15:50;;;;;;;105.22;47.13;;;;;;;-0.82;66.87;97994.72;5088504;28;20056;-67
2022/11/20 10:18:21;;;;;;;104.30;44.33;;;;;;;-0.73;67.05;98000.56;5087380;28;20024;-70
2022/11/20 10:21:18;;;;;;;101.30;44.55;;;;;;;-0.64;67.07;98006.41;5087854;28;20067;-69
2022/11/20 10:23:57;;;;;;;103.88;44.13;;;;;;;-0.57;67.48;98000.88;5087860;28;20024;-70
2022/11/20 10:26:40;;;;;;;104.05;44.63;;;;;;;-0.51;67.10;97991.88;5089066;28;20020;-70
2022/11/20 10:29:23;;;;;;;101.57;44.83;;;;;;;-0.48;67.12;97981.44;5088350;28;20051;-69
2022/11/20 10:32:01;;;;;;;102.72;42.38;;;;;;;-0.42;67.22;97981.56;5070723;28;20847;-69
2022/11/20 10:34:49;;;;;;;96.75;40.47;;;;;;;-0.38;67.32;97980.84;5069709;28;20083;-70
2022/11/20 10:37:17;;;;;;;89.88;38.88;;;;;;;-0.30;67.16;97971.56;5088856;28;20021;-70
2022/11/20 10:39:53;;;;;;;98.55;41.60;;;;;;;-0.27;67.43;97968.41;5088713;28;20020;-70
2022/11/20 10:42:51;;;;;;;99.53;42.70;;;;;;;-0.24;67.37;97953.66;5087187;28;20081;-69
2022/11/20 10:45:39;;;;;;;92.82;39.45;;;;;;;-0.19;67.71;97959.94;5089174;28;20052;-70
2022/11/20 10:48:26;;;;;;;78.55;33.22;;;;;;;-0.13;67.44;97954.66;5073989;28;20056;-70
2022/11/20 10:51:13;;;;;;;80.88;34.72;;;;;;;-0.07;67.41;97957.22;5088607;28;20032;-69
2022/11/20 10:54:11;;;;;;;74.20;31.40;;;;;;;-0.02;67.55;97957.31;5089324;28;20031;-69
2022/11/20 10:56:43;;;;;;;65.22;28.83;;;;;;;0.09;67.41;97961.03;5057084;28;20441;-70
2022/11/20 10:59:17;;;;;;;66.35;29.48;;;;;;;0.19;67.40;97959.59;5070628;28;20018;-70
2022/11/20 11:01:43;;;;;;;60.60;27.73;;;;;;;0.26;67.52;97961.06;5088816;28;20039;-70
2022/11/20 11:04:56;;;;;;;66.75;30.10;;;;;;;0.32;67.72;97959.31;5089232;28;20032;-70
2022/11/20 11:07:34;;;;;;;60.58;25.13;;;;;;;0.38;67.80;97966.44;5071293;28;20048;-70
2022/11/20 11:10:00;;;;;;;59.28;26.63;;;;;;;0.44;67.41;97960.03;5087440;28;20081;-70
2022/11/20 11:12:27;;;;;;;63.67;28.95;;;;;;;0.51;67.28;97962.63;5088675;28;20032;-70
2022/11/20 11:14:55;;;;;;;66.88;29.50;;;;;;;0.53;67.48;97957.78;5089191;28;20032;-70
2022/11/20 11:17:22;;;;;;;61.78;27.48;;;;;;;0.59;67.41;97962.22;5089027;28;20048;-70
2022/11/20 11:20:01;;;;;;;61.90;25.65;;;;;;;0.61;67.58;97964.66;5088730;28;20032;-70
2022/11/20 11:22:28;;;;;;;57.17;25.65;;;;;;;0.65;67.65;97967.69;5091677;28;20036;-70